Time;durP1;ratioP1;P1;durP2;ratioP2;P2;SDS_P1;SDS_P2;PMS_P1;PMS_P2;Temp;Humidity;BMP_temperature;BMP_pressure;BME280_temperature;BME280_humidity;BME280_pressure;Samples;Min_cycle;Max_cycle;Signal;HPM_P1;HPM_P2
2022/12/20 00:02:20;;;;;;;20.20;10.33;;;1.60;99.90;;;;;;8272062;28;20211;-69
2022/12/20 00:06:22;;;;;;;26.87;15.57;;;1.70;99.90;;;;;;8275079;28;20294;-69
2022/12/20 00:10:22;;;;;;;28.43;15.70;;;1.90;99.90;;;;;;8252943;28;20194;-71
2022/12/20 00:14:23;;;;;;;34.50;16.93;;;2.00;99.90;;;;;;8278047;28;20207;-69
2022/12/20 00:18:24;;;;;;;43.33;24.20;;;2.20;99.90;;;;;;8271916;28;20644;-69
2022/12/20 00:22:25;;;;;;;39.23;20.37;;;2.20;1.00;;;;;;8273723;28;20234;-70
2022/12/20 00:26:29;;;;;;;22.23;14.17;;;2.10;99.90;;;;;;8274091;28;20175;-70
2022/12/20 00:30:29;;;;;;;23.40;13.07;;;2.00;99.90;;;;;;8258822;28;20187;-70
2022/12/20 00:34:30;;;;;;;23.73;13.90;;;2.00;99.90;;;;;;8274550;28;20253;-70
2022/12/20 00:38:31;;;;;;;17.27;11.60;;;2.00;99.90;;;;;;8267808;28;20199;-70
2022/12/20 00:42:32;;;;;;;15.67;10.27;;;2.10;99.90;;;;;;8271031;28;20291;-70
2022/12/20 00:46:34;;;;;;;15.97;10.17;;;2.30;99.90;;;;;;8259411;28;20187;-70
2022/12/20 00:50:35;;;;;;;16.30;9.67;;;2.40;99.90;;;;;;8269491;28;20175;-70
2022/12/20 00:54:35;;;;;;;14.47;8.93;;;2.50;99.90;;;;;;8275840;28;20195;-70
2022/12/20 00:58:40;;;;;;;15.20;9.47;;;2.60;1.00;;;;;;8273946;28;20269;-70
2022/12/20 01:02:41;;;;;;;16.43;9.73;;;2.60;99.90;;;;;;8269062;28;20595;-70
2022/12/20 01:06:41;;;;;;;15.17;10.13;;;2.70;92.20;;;;;;8273878;28;20183;-69
2022/12/20 01:10:42;;;;;;;15.53;9.07;;;2.70;1.00;;;;;;8268975;28;20184;-70
2022/12/20 01:14:43;;;;;;;18.50;9.80;;;2.70;1.00;;;;;;8258435;28;20345;-70
2022/12/20 01:18:45;;;;;;;14.73;8.77;;;2.70;1.00;;;;;;8269938;28;20274;-69
2022/12/20 01:22:46;;;;;;;16.33;9.63;;;2.60;1.00;;;;;;8271108;28;20635;-69
2022/12/20 01:26:47;;;;;;;15.37;9.77;;;2.60;1.00;;;;;;8270086;28;20504;-70
2022/12/20 01:30:48;;;;;;;18.40;9.33;;;2.60;1.00;;;;;;8267946;28;20244;-69
2022/12/20 01:34:48;;;;;;;16.27;9.80;;;2.60;1.00;;;;;;8266488;28;20222;-69
2022/12/20 01:38:49;;;;;;;14.63;9.20;;;2.70;1.00;;;;;;8266732;28;20185;-68
2022/12/20 01:42:50;;;;;;;15.33;9.37;;;2.70;99.90;;;;;;8267559;28;20211;-68
2022/12/20 01:46:52;;;;;;;13.47;9.27;;;2.70;99.90;;;;;;8269744;28;20262;-68
2022/12/20 01:50:53;;;;;;;13.97;9.37;;;2.80;99.90;;;;;;8275225;28;20205;-69
2022/12/20 01:55:21;;;;;;;14.53;9.03;;;2.80;99.90;;;;;;8271213;28;20197;-69
2022/12/20 01:59:22;;;;;;;13.13;9.23;;;2.90;99.90;;;;;;8249917;28;20282;-69
2022/12/20 02:03:24;;;;;;;12.67;8.17;;;2.90;99.90;;;;;;8275452;28;20222;-69
2022/12/20 02:07:28;;;;;;;13.63;9.03;;;2.90;99.90;;;;;;8269962;28;20195;-69
2022/12/20 02:11:31;;;;;;;13.93;8.27;;;2.90;99.90;;;;;;8254344;28;20198;-69
2022/12/20 02:15:56;;;;;;;15.07;8.90;;;2.90;99.90;;;;;;8263582;28;20191;-68
2022/12/20 02:20:12;;;;;;;14.43;9.07;;;3.00;99.90;;;;;;8268109;28;20194;-69
2022/12/20 02:24:13;;;;;;;12.03;8.40;;;3.00;99.90;;;;;;8272269;28;20217;-68
2022/12/20 02:28:22;;;;;;;12.27;7.93;;;3.00;99.90;;;;;;8267382;28;20191;-68
2022/12/20 02:32:27;;;;;;;10.90;7.93;;;3.00;99.90;;;;;;8266618;28;20431;-69
2022/12/20 02:36:28;;;;;;;14.03;8.30;;;3.00;99.90;;;;;;8254346;28;20215;-69
2022/12/20 02:40:36;;;;;;;12.10;7.73;;;3.00;99.90;;;;;;8252557;28;20350;-69
2022/12/20 02:45:16;;;;;;;12.93;8.27;;;3.00;99.90;;;;;;8272229;28;20325;-69
2022/12/20 02:49:21;;;;;;;9.83;7.13;;;3.00;99.90;;;;;;8265386;28;20274;-69
2022/12/20 02:53:22;;;;;;;12.90;7.00;;;3.00;99.90;;;;;;8266526;28;20198;-68
2022/12/20 02:57:36;;;;;;;10.07;7.17;;;3.00;99.90;;;;;;8269741;28;20203;-68
2022/12/20 03:01:43;;;;;;;11.67;7.53;;;3.00;99.90;;;;;;8265013;28;20211;-68
2022/12/20 03:05:46;;;;;;;12.53;7.53;;;3.00;99.90;;;;;;8263625;28;20222;-68
2022/12/20 03:09:47;;;;;;;11.50;7.80;;;3.00;99.90;;;;;;8270785;28;20194;-68
2022/12/20 03:13:48;;;;;;;11.80;7.10;;;2.90;99.90;;;;;;8269858;28;20191;-68
2022/12/20 03:17:49;;;;;;;12.57;6.90;;;2.90;99.90;;;;;;8271410;28;20191;-69
2022/12/20 03:21:50;;;;;;;12.23;7.63;;;3.00;99.90;;;;;;8265439;28;20230;-68
2022/12/20 03:25:51;;;;;;;12.97;7.80;;;3.10;99.90;;;;;;8264869;28;20204;-68
2022/12/20 03:29:52;;;;;;;10.67;7.00;;;3.20;99.90;;;;;;8270014;28;20187;-68
2022/12/20 03:33:52;;;;;;;12.70;6.80;;;3.20;99.90;;;;;;8248725;28;20222;-68
2022/12/20 03:37:54;;;;;;;9.83;6.60;;;3.30;99.90;;;;;;8262635;28;20261;-69
2022/12/20 03:41:55;;;;;;;11.70;7.00;;;3.40;99.90;;;;;;8262702;28;20180;-67
2022/12/20 03:45:56;;;;;;;9.87;6.73;;;3.40;99.90;;;;;;8260315;28;20234;-68
2022/12/20 03:49:56;;;;;;;10.50;7.30;;;3.40;99.90;;;;;;8264172;28;20180;-67
2022/12/20 03:53:57;;;;;;;10.70;6.80;;;3.50;99.90;;;;;;8267181;28;20188;-68
2022/12/20 03:57:58;;;;;;;10.63;6.20;;;3.50;99.90;;;;;;8269333;28;20191;-67
2022/12/20 04:01:59;;;;;;;12.23;6.90;;;3.70;99.90;;;;;;8252071;28;20313;-68
2022/12/20 04:05:59;;;;;;;10.50;6.80;;;3.90;99.90;;;;;;8264825;28;20278;-68
2022/12/20 04:10:00;;;;;;;9.90;6.17;;;3.90;99.90;;;;;;8249594;28;20543;-67
2022/12/20 04:14:01;;;;;;;12.23;6.87;;;4.00;99.90;;;;;;8268216;28;20293;-67
2022/12/20 04:18:02;;;;;;;15.43;6.97;;;4.00;99.90;;;;;;8266109;28;20187;-67
2022/12/20 04:22:02;;;;;;;11.30;7.07;;;4.00;99.90;;;;;;8267750;28;20191;-67
2022/12/20 04:26:05;;;;;;;13.03;7.70;;;4.10;99.90;;;;;;8254722;28;20191;-67
2022/12/20 04:30:07;;;;;;;11.40;7.20;;;4.20;99.90;;;;;;8266487;28;20196;-68
2022/12/20 04:34:08;;;;;;;10.63;6.93;;;4.20;99.90;;;;;;8253399;28;20317;-68
2022/12/20 04:38:09;;;;;;;11.10;6.90;;;4.20;99.90;;;;;;8266415;28;20188;-67
2022/12/20 04:42:10;;;;;;;11.00;7.07;;;4.30;99.90;;;;;;8264122;28;20191;-67
2022/12/20 04:46:10;;;;;;;11.10;7.27;;;4.30;99.90;;;;;;8269187;28;20187;-68
2022/12/20 04:50:11;;;;;;;11.30;7.10;;;4.30;99.90;;;;;;8270827;28;20195;-67
2022/12/20 04:54:12;;;;;;;11.40;6.83;;;4.30;99.90;;;;;;8271529;28;20187;-67
2022/12/20 04:58:13;;;;;;;10.13;7.00;;;4.40;99.90;;;;;;8269524;28;20198;-67
2022/12/20 05:02:14;;;;;;;10.10;6.57;;;4.30;99.90;;;;;;8260019;28;20189;-67
2022/12/20 05:06:15;;;;;;;10.47;7.30;;;4.30;99.90;;;;;;8272710;28;20187;-67
2022/12/20 05:10:16;;;;;;;11.53;7.60;;;4.30;99.90;;;;;;8272136;28;20241;-67
2022/12/20 05:14:17;;;;;;;11.07;7.13;;;4.30;99.90;;;;;;8269570;28;20199;-67
2022/12/20 05:18:18;;;;;;;13.07;8.07;;;4.30;99.90;;;;;;8272136;28;20602;-67
2022/12/20 05:26:39;;;;;;;13.07;7.67;;;4.20;99.90;;;;;;8274346;28;20187;-67
2022/12/20 05:30:39;;;;;;;13.67;8.27;;;4.20;99.90;;;;;;8268449;28;20188;-67
2022/12/20 05:34:40;;;;;;;12.83;8.40;;;4.10;99.90;;;;;;8268137;28;20318;-67
2022/12/20 05:38:41;;;;;;;13.63;8.83;;;4.10;99.90;;;;;;8270472;28;20191;-67
2022/12/20 05:42:43;;;;;;;14.30;8.27;;;4.20;99.90;;;;;;8270831;28;20280;-67
2022/12/20 05:46:44;;;;;;;11.93;7.97;;;4.20;99.90;;;;;;8260140;28;20199;-67
2022/12/20 05:50:45;;;;;;;12.23;8.30;;;4.20;99.90;;;;;;8270347;28;20552;-67
2022/12/20 05:54:46;;;;;;;12.13;7.87;;;4.20;99.90;;;;;;8269235;28;20215;-67
2022/12/20 05:58:47;;;;;;;14.50;8.80;;;4.20;99.90;;;;;;8272122;28;20243;-68
2022/12/20 06:02:48;;;;;;;12.47;8.30;;;4.20;99.90;;;;;;8276843;28;20250;-68
2022/12/20 06:06:48;;;;;;;13.47;8.67;;;4.20;99.90;;;;;;8265320;28;20234;-67
2022/12/20 06:10:50;;;;;;;12.53;8.57;;;4.10;99.90;;;;;;8273769;28;20186;-67
2022/12/20 06:14:51;;;;;;;14.80;9.80;;;4.10;99.90;;;;;;8275655;28;20191;-67
2022/12/20 06:18:52;;;;;;;16.03;9.33;;;4.20;99.90;;;;;;8268558;28;20193;-67
2022/12/20 06:22:52;;;;;;;14.13;8.50;;;4.20;99.90;;;;;;8276056;28;20213;-68
2022/12/20 06:26:53;;;;;;;13.20;9.17;;;4.20;99.90;;;;;;8278282;28;20183;-68
2022/12/20 06:30:55;;;;;;;13.63;8.83;;;4.20;99.90;;;;;;8270459;28;20247;-67
2022/12/20 06:34:56;;;;;;;14.83;8.67;;;4.20;99.90;;;;;;8271058;28;20326;-67
2022/12/20 06:38:57;;;;;;;16.10;9.37;;;4.20;99.90;;;;;;8273570;28;20191;-68
2022/12/20 06:42:58;;;;;;;16.77;9.57;;;4.20;99.90;;;;;;8271639;28;20231;-67
2022/12/20 06:46:59;;;;;;;13.80;8.43;;;4.10;99.90;;;;;;8271905;28;20190;-68
2022/12/20 06:50:59;;;;;;;14.70;9.10;;;4.10;99.90;;;;;;8248650;28;20187;-67
2022/12/20 06:55:00;;;;;;;14.50;9.00;;;4.10;99.90;;;;;;8270329;28;20274;-68
2022/12/20 06:59:01;;;;;;;15.97;9.43;;;4.00;99.90;;;;;;8268494;28;20588;-68
2022/12/20 07:03:02;;;;;;;16.47;9.57;;;4.00;99.90;;;;;;8264922;28;20211;-68
2022/12/20 07:07:04;;;;;;;15.20;9.20;;;4.00;99.90;;;;;;8267644;28;20222;-69
2022/12/20 07:11:06;;;;;;;13.23;8.90;;;4.00;99.90;;;;;;8267460;28;20194;-69
2022/12/20 07:15:07;;;;;;;13.67;8.80;;;4.00;99.90;;;;;;8265887;28;20265;-69
2022/12/20 07:19:12;;;;;;;14.67;8.77;;;4.10;99.90;;;;;;8265259;28;20198;-69
2022/12/20 07:23:13;;;;;;;13.10;8.73;;;4.10;99.90;;;;;;8254505;28;20214;-69
2022/12/20 07:27:14;;;;;;;13.93;9.30;;;4.20;99.90;;;;;;8271867;28;20198;-69
2022/12/20 07:31:14;;;;;;;17.17;9.67;;;4.30;99.90;;;;;;8255154;28;20187;-69
2022/12/20 07:35:15;;;;;;;17.30;10.57;;;4.40;99.90;;;;;;8274453;28;20226;-69
2022/12/20 07:39:17;;;;;;;14.90;9.30;;;4.50;99.90;;;;;;8268959;28;20199;-69
2022/12/20 07:43:17;;;;;;;15.30;9.70;;;4.50;99.90;;;;;;8270129;28;20238;-69
2022/12/20 07:47:18;;;;;;;13.20;9.03;;;4.60;99.90;;;;;;8259433;28;20210;-69
2022/12/20 07:51:30;;;;;;;14.43;9.27;;;4.80;99.90;;;;;;8257415;28;20234;-69
2022/12/20 07:55:32;;;;;;;17.97;10.40;;;4.90;99.90;;;;;;8278528;28;20314;-69
2022/12/20 07:59:40;;;;;;;16.40;10.37;;;5.00;99.90;;;;;;8271793;28;20192;-69
2022/12/20 08:03:49;;;;;;;15.40;8.97;;;5.20;99.90;;;;;;8266954;28;20827;-69
2022/12/20 08:07:51;;;;;;;17.03;9.63;;;5.30;99.90;;;;;;8273054;28;20257;-69
2022/12/20 08:11:52;;;;;;;15.50;9.93;;;5.50;99.90;;;;;;8271076;28;20599;-69
2022/12/20 08:15:53;;;;;;;14.80;9.80;;;5.60;99.90;;;;;;8272707;28;20302;-69
2022/12/20 08:19:56;;;;;;;16.50;9.73;;;5.70;99.90;;;;;;8271883;28;20199;-69
2022/12/20 08:23:56;;;;;;;18.93;10.40;;;5.80;99.90;;;;;;8279958;28;20238;-69
2022/12/20 08:28:00;;;;;;;15.10;9.47;;;6.00;99.90;;;;;;8276416;28;20270;-70
2022/12/20 08:32:01;;;;;;;15.10;9.43;;;6.10;83.00;;;;;;8275419;28;20191;-70
2022/12/20 08:36:05;;;;;;;15.13;9.87;;;6.30;60.80;;;;;;8272973;28;20200;-68
2022/12/20 08:40:07;;;;;;;17.07;10.17;;;6.40;46.50;;;;;;8260425;28;20199;-70
2022/12/20 08:44:09;;;;;;;16.67;10.63;;;6.40;39.20;;;;;;8277773;28;20457;-70
2022/12/20 08:48:10;;;;;;;19.87;11.43;;;6.50;30.00;;;;;;8270485;28;20192;-69
2022/12/20 08:52:11;;;;;;;17.73;11.03;;;6.50;25.00;;;;;;8258432;28;20252;-69
2022/12/20 08:56:16;;;;;;;18.73;11.50;;;6.60;23.20;;;;;;8275740;28;20423;-69
2022/12/20 09:00:17;;;;;;;19.93;12.77;;;6.80;21.40;;;;;;8272629;28;20254;-69
2022/12/20 09:04:18;;;;;;;18.50;12.07;;;6.90;15.50;;;;;;8274935;28;20249;-69
2022/12/20 09:08:19;;;;;;;18.93;11.10;;;6.90;15.30;;;;;;8279428;28;20218;-69
2022/12/20 09:12:20;;;;;;;17.63;11.70;;;6.90;11.40;;;;;;8265687;28;20263;-69
2022/12/20 09:16:23;;;;;;;19.77;11.67;;;6.90;6.10;;;;;;8277885;28;20212;-69
2022/12/20 09:20:24;;;;;;;18.00;11.40;;;6.80;7.20;;;;;;8276246;28;20187;-69
2022/12/20 09:24:25;;;;;;;20.43;12.77;;;6.80;7.90;;;;;;8281378;28;20209;-69
2022/12/20 09:28:26;;;;;;;19.23;12.40;;;6.80;10.60;;;;;;8277917;28;20191;-69
2022/12/20 09:32:26;;;;;;;18.93;11.20;;;6.80;13.60;;;;;;8271948;28;20211;-68
2022/12/20 09:36:28;;;;;;;18.23;11.70;;;6.90;15.20;;;;;;8259302;28;20198;-68
2022/12/20 09:40:31;;;;;;;18.37;10.97;;;6.90;14.20;;;;;;8274593;28;20214;-68
2022/12/20 09:44:38;;;;;;;21.17;11.67;;;7.00;15.20;;;;;;8273528;28;20532;-67
2022/12/20 09:48:41;;;;;;;20.10;11.27;;;7.20;6.30;;;;;;8257357;28;20414;-68
2022/12/20 09:52:57;;;;;;;18.80;11.47;;;7.50;6.10;;;;;;8264395;28;20199;-68
2022/12/20 09:57:06;;;;;;;18.93;11.23;;;7.80;1.00;;;;;;8277129;28;20184;-68
2022/12/20 10:01:20;;;;;;;16.83;10.43;;;8.00;1.00;;;;;;8268738;28;20195;-68
2022/12/20 10:05:47;;;;;;;18.47;10.80;;;8.10;1.00;;;;;;8276946;28;20234;-68
2022/12/20 10:09:59;;;;;;;19.50;11.53;;;8.00;1.00;;;;;;8260329;28;20213;-68
2022/12/20 10:14:34;;;;;;;15.10;9.90;;;7.80;1.00;;;;;;8277439;28;20196;-69
2022/12/20 10:19:04;;;;;;;17.90;11.40;;;7.80;1.00;;;;;;8271772;28;20211;-68
2022/12/20 10:23:22;;;;;;;16.67;10.87;;;8.10;1.00;;;;;;8271861;28;20215;-68
2022/12/20 10:27:23;;;;;;;17.27;10.43;;;8.30;1.00;;;;;;8257900;28;20192;-68
2022/12/20 10:31:24;;;;;;;18.40;11.30;;;8.50;1.00;;;;;;8253141;28;20198;-68
2022/12/20 10:35:39;;;;;;;16.53;10.90;;;8.70;1.00;;;;;;8270050;28;20323;-68
2022/12/20 10:39:46;;;;;;;15.63;10.87;;;9.00;1.00;;;;;;8269427;28;20197;-69
2022/12/20 10:44:17;;;;;;;18.20;11.13;;;9.20;1.00;;;;;;8270262;28;20237;-69
2022/12/20 10:48:37;;;;;;;16.20;10.30;;;9.30;1.00;;;;;;8264514;28;20205;-69
2022/12/20 10:52:38;;;;;;;15.73;9.97;;;9.60;1.00;;;;;;8269149;28;20214;-68
2022/12/20 10:56:39;;;;;;;16.00;10.43;;;9.70;1.00;;;;;;8273367;28;20188;-69
2022/12/20 11:00:40;;;;;;;17.43;10.97;;;9.60;1.00;;;;;;8251817;28;20257;-68
2022/12/20 11:04:41;;;;;;;16.40;9.97;;;9.60;1.00;;;;;;8267559;28;20237;-69
2022/12/20 11:08:42;;;;;;;14.17;9.43;;;9.50;1.00;;;;;;8274879;28;20179;-68
2022/12/20 11:12:56;;;;;;;15.17;10.30;;;9.30;1.00;;;;;;8270930;28;20195;-70
2022/12/20 11:16:59;;;;;;;13.93;9.70;;;9.00;1.00;;;;;;8271729;28;20242;-69
2022/12/20 11:21:15;;;;;;;15.63;10.83;;;8.70;1.00;;;;;;8254332;28;20208;-69
2022/12/20 11:25:33;;;;;;;15.00;10.17;;;8.60;1.00;;;;;;8275328;28;20215;-68
2022/12/20 11:29:57;;;;;;;16.43;10.77;;;8.50;1.00;;;;;;8270160;28;20261;-69
2022/12/20 11:34:22;;;;;;;16.67;10.93;;;8.40;1.00;;;;;;8254801;28;20216;-69
2022/12/20 11:38:43;;;;;;;17.57;10.53;;;8.40;1.00;;;;;;8273730;28;20184;-69
2022/12/20 11:42:53;;;;;;;16.20;10.67;;;8.50;1.00;;;;;;8274832;28;20216;-69
2022/12/20 11:47:27;;;;;;;16.83;11.03;;;8.50;1.00;;;;;;8269885;28;20184;-69
2022/12/20 11:51:52;;;;;;;19.27;11.50;;;8.50;1.00;;;;;;8268714;28;20199;-70
2022/12/20 11:56:01;;;;;;;16.33;11.23;;;8.40;1.00;;;;;;8275852;28;20187;-69
2022/12/20 12:00:02;;;;;;;22.50;12.37;;;8.50;1.00;;;;;;8281263;28;20197;-70
2022/12/20 12:04:26;;;;;;;18.57;11.07;;;8.50;1.00;;;;;;8277783;28;20574;-71
2022/12/20 12:08:52;;;;;;;19.80;10.67;;;8.40;1.00;;;;;;8262930;28;20244;-70
2022/12/20 12:13:16;;;;;;;18.30;11.50;;;8.30;1.00;;;;;;8264971;28;20192;-70
2022/12/20 12:17:27;;;;;;;18.07;11.00;;;8.10;1.00;;;;;;8262668;28;20191;-70
2022/12/20 12:21:35;;;;;;;17.67;11.13;;;8.00;1.00;;;;;;8264892;28;20196;-71
2022/12/20 12:25:36;;;;;;;16.67;10.67;;;7.90;1.00;;;;;;8265147;28;20200;-70
2022/12/20 12:29:37;;;;;;;15.37;10.13;;;7.90;1.00;;;;;;8264419;28;20204;-70
2022/12/20 12:33:45;;;;;;;17.50;11.33;;;7.90;1.00;;;;;;8282832;28;20223;-70
2022/12/20 12:38:19;;;;;;;17.67;10.70;;;7.90;1.00;;;;;;8276152;28;20223;-69
2022/12/20 12:42:48;;;;;;;17.40;10.87;;;7.90;1.00;;;;;;8276905;28;20357;-70
2022/12/20 12:46:58;;;;;;;17.57;10.90;;;8.00;1.00;;;;;;8273709;28;20180;-70
2022/12/20 12:51:01;;;;;;;15.87;10.27;;;8.00;1.00;;;;;;8259750;28;20514;-69
2022/12/20 12:55:02;;;;;;;16.90;10.27;;;8.10;1.00;;;;;;8266560;28;20643;-70
2022/12/20 12:59:06;;;;;;;16.03;10.07;;;8.10;1.00;;;;;;8276664;28;20199;-70
2022/12/20 13:03:15;;;;;;;15.23;10.33;;;8.00;1.00;;;;;;8274024;28;20450;-70
2022/12/20 13:07:42;;;;;;;20.10;12.63;;;7.90;1.00;;;;;;8276471;28;20183;-70
2022/12/20 13:11:43;;;;;;;24.20;14.33;;;7.80;1.00;;;;;;8273727;28;20198;-70
2022/12/20 13:15:45;;;;;;;22.83;14.00;;;7.70;1.00;;;;;;8273078;28;20198;-70
2022/12/20 13:19:56;;;;;;;26.03;16.53;;;7.60;1.00;;;;;;8265331;28;20199;-70
2022/12/20 13:24:36;;;;;;;24.43;15.87;;;7.60;1.00;;;;;;8272785;28;20237;-70
2022/12/20 13:28:45;;;;;;;28.17;17.93;;;7.50;1.00;;;;;;8258124;28;20251;-70
2022/12/20 13:33:14;;;;;;;27.73;17.47;;;7.50;1.00;;;;;;8259712;28;20207;-70
2022/12/20 13:37:47;;;;;;;31.70;19.47;;;7.50;5.40;;;;;;8257264;28;20414;-71
2022/12/20 13:42:06;;;;;;;28.90;17.77;;;7.30;11.30;;;;;;8271776;28;20188;-70
2022/12/20 13:46:09;;;;;;;29.53;16.87;;;7.10;29.80;;;;;;8273133;28;20231;-71
2022/12/20 13:50:34;;;;;;;28.90;16.77;;;7.10;55.10;;;;;;8263425;28;20195;-72
2022/12/20 13:54:51;;;;;;;25.50;15.77;;;7.10;43.90;;;;;;8275277;28;20194;-71
2022/12/20 13:58:57;;;;;;;22.67;13.93;;;7.00;54.10;;;;;;8273298;28;20184;-71
2022/12/20 14:03:00;;;;;;;26.50;16.90;;;6.90;66.80;;;;;;8259312;28;20221;-71
2022/12/20 14:07:02;;;;;;;47.53;25.03;;;6.80;73.80;;;;;;8260906;28;20192;-71
2022/12/20 14:11:11;;;;;;;38.00;21.47;;;6.80;73.60;;;;;;8259631;28;20211;-70
2022/12/20 14:15:32;;;;;;;30.17;18.73;;;6.70;82.10;;;;;;8278552;28;20187;-71
2022/12/20 14:19:33;;;;;;;32.23;20.27;;;6.50;90.70;;;;;;8254438;28;20218;-71
2022/12/20 14:23:41;;;;;;;41.10;22.87;;;6.40;91.00;;;;;;8270932;28;20235;-72
2022/12/20 14:27:42;;;;;;;35.43;22.73;;;6.30;99.90;;;;;;8250977;28;20247;-70
2022/12/20 14:31:45;;;;;;;34.97;21.30;;;6.10;99.90;;;;;;8265285;28;20212;-71
2022/12/20 14:35:48;;;;;;;50.33;28.30;;;6.00;99.90;;;;;;8270336;28;20276;-71
2022/12/20 14:40:08;;;;;;;71.63;40.37;;;5.90;99.90;;;;;;8249881;28;20194;-71
2022/12/20 14:44:16;;;;;;;104.47;41.83;;;5.80;99.90;;;;;;8269142;28;20227;-71
2022/12/20 14:48:17;;;;;;;81.27;36.90;;;5.70;99.90;;;;;;8274029;28;20194;-70
2022/12/20 14:52:24;;;;;;;54.47;28.80;;;5.60;99.90;;;;;;8275021;28;20190;-71
2022/12/20 14:56:25;;;;;;;44.70;25.50;;;5.50;99.90;;;;;;8268281;28;20206;-71
2022/12/20 15:00:31;;;;;;;33.97;20.57;;;5.40;99.90;;;;;;8277547;28;20193;-71
2022/12/20 15:04:35;;;;;;;26.20;14.83;;;5.20;99.90;;;;;;8266831;28;20211;-72
2022/12/20 15:08:37;;;;;;;24.70;14.37;;;5.10;99.90;;;;;;8275664;28;20190;-70
2022/12/20 15:12:38;;;;;;;23.27;13.20;;;5.00;99.90;;;;;;8262665;28;20221;-71
2022/12/20 15:16:46;;;;;;;25.90;14.73;;;5.10;99.90;;;;;;8272950;28;20357;-70
2022/12/20 15:21:02;;;;;;;22.23;13.73;;;5.10;99.90;;;;;;8273408;28;20207;-71
2022/12/20 15:25:15;;;;;;;22.63;13.50;;;5.10;93.30;;;;;;8273861;28;20222;-69
2022/12/20 15:29:27;;;;;;;23.07;13.57;;;5.10;92.90;;;;;;8265713;28;20176;-69
2022/12/20 15:33:33;;;;;;;26.00;14.33;;;5.10;89.00;;;;;;8268034;28;20232;-71
2022/12/20 15:37:34;;;;;;;27.47;15.23;;;5.10;75.10;;;;;;8267828;28;20250;-70
2022/12/20 15:41:35;;;;;;;24.00;15.20;;;5.00;73.20;;;;;;8257281;28;20193;-71
2022/12/20 15:45:35;;;;;;;24.70;14.47;;;4.90;78.70;;;;;;8277525;28;20210;-70
2022/12/20 15:49:36;;;;;;;22.53;13.70;;;4.80;84.00;;;;;;8272493;28;20187;-72
2022/12/20 15:53:40;;;;;;;25.83;15.37;;;4.80;86.80;;;;;;8275238;28;20188;-70
2022/12/20 15:57:40;;;;;;;25.20;14.63;;;4.80;80.70;;;;;;8271521;28;20186;-72
2022/12/20 16:01:42;;;;;;;25.93;14.87;;;4.70;86.70;;;;;;8258058;28;20199;-71
2022/12/20 16:05:43;;;;;;;25.37;15.03;;;4.70;89.70;;;;;;8273805;28;20207;-71
2022/12/20 16:09:43;;;;;;;21.90;14.17;;;4.70;91.00;;;;;;8277749;28;20194;-71
2022/12/20 16:13:46;;;;;;;24.33;14.73;;;4.70;99.90;;;;;;8273594;28;20191;-71
2022/12/20 16:17:46;;;;;;;24.73;15.10;;;4.70;97.50;;;;;;8275095;28;20180;-70
2022/12/20 16:21:50;;;;;;;26.73;16.20;;;4.70;99.90;;;;;;8272446;28;20195;-70
2022/12/20 16:25:51;;;;;;;26.83;16.10;;;4.60;99.90;;;;;;8270481;28;20219;-70
2022/12/20 16:29:52;;;;;;;28.73;16.93;;;4.60;99.90;;;;;;8270645;28;20190;-70
2022/12/20 16:33:54;;;;;;;32.67;18.13;;;4.50;99.90;;;;;;8266233;28;20219;-70
2022/12/20 16:37:57;;;;;;;29.03;15.93;;;4.50;99.90;;;;;;8252566;28;20198;-70
2022/12/20 16:41:59;;;;;;;29.53;16.83;;;4.50;99.90;;;;;;8272224;28;20191;-70
2022/12/20 16:46:00;;;;;;;29.43;15.57;;;4.40;99.90;;;;;;8278796;28;20211;-69
2022/12/20 16:50:00;;;;;;;29.60;15.97;;;4.40;99.90;;;;;;8273529;28;20198;-70
2022/12/20 16:54:04;;;;;;;27.57;15.20;;;4.40;99.90;;;;;;8256579;28;20195;-70
2022/12/20 16:58:05;;;;;;;25.77;14.77;;;4.40;99.90;;;;;;8280777;28;20183;-70
2022/12/20 17:02:27;;;;;;;25.17;14.70;;;4.40;99.90;;;;;;8273889;28;20189;-70
2022/12/20 17:06:28;;;;;;;25.73;15.10;;;4.30;99.90;;;;;;8272176;28;20575;-70
2022/12/20 17:10:29;;;;;;;25.13;14.87;;;4.30;99.90;;;;;;8273903;28;20191;-69
2022/12/20 17:14:30;;;;;;;28.87;16.47;;;4.30;99.90;;;;;;8280212;28;20259;-70
2022/12/20 17:18:31;;;;;;;28.40;17.07;;;4.30;99.90;;;;;;8274822;28;20218;-70
2022/12/20 17:22:32;;;;;;;37.53;20.33;;;4.20;99.90;;;;;;8259489;28;20196;-70
2022/12/20 17:26:33;;;;;;;37.17;20.20;;;4.20;99.90;;;;;;8253730;28;20203;-69
2022/12/20 17:30:34;;;;;;;31.93;18.37;;;4.10;99.90;;;;;;8274831;28;20186;-69
2022/12/20 17:34:35;;;;;;;32.17;18.73;;;4.10;99.90;;;;;;8268924;28;20230;-70
2022/12/20 17:38:36;;;;;;;35.70;20.40;;;4.10;99.90;;;;;;8273729;28;20179;-70
2022/12/20 17:42:37;;;;;;;36.70;20.40;;;4.00;99.90;;;;;;8274554;28;20282;-69
2022/12/20 17:46:37;;;;;;;34.67;19.13;;;4.00;99.90;;;;;;8272584;28;20193;-70
2022/12/20 17:50:38;;;;;;;32.77;20.00;;;3.90;99.90;;;;;;8272197;28;20284;-70
2022/12/20 17:54:39;;;;;;;32.17;19.53;;;3.90;99.90;;;;;;8254256;28;20458;-69
2022/12/20 17:58:41;;;;;;;31.67;17.90;;;3.90;99.90;;;;;;8270156;28;20203;-70
2022/12/20 18:02:42;;;;;;;33.43;18.57;;;3.90;99.90;;;;;;8271541;28;20192;-69
2022/12/20 18:06:44;;;;;;;29.33;17.60;;;3.90;99.90;;;;;;8255069;28;20206;-69
2022/12/20 18:10:44;;;;;;;29.07;18.10;;;3.90;99.90;;;;;;8273226;28;20274;-70
2022/12/20 18:14:47;;;;;;;33.67;19.77;;;3.90;99.90;;;;;;8269187;28;20199;-70
2022/12/20 18:18:48;;;;;;;41.53;22.30;;;4.00;99.90;;;;;;8272780;28;20198;-69
2022/12/20 18:22:49;;;;;;;37.57;20.87;;;4.10;99.90;;;;;;8271570;28;20179;-70
2022/12/20 18:26:50;;;;;;;40.77;23.57;;;4.00;99.90;;;;;;8274127;28;20183;-69
2022/12/20 18:30:51;;;;;;;43.17;24.73;;;4.00;99.90;;;;;;8259745;28;20275;-70
2022/12/20 18:34:51;;;;;;;47.23;23.77;;;4.00;99.90;;;;;;8274614;28;20229;-70
2022/12/20 18:38:53;;;;;;;43.20;23.20;;;4.00;99.90;;;;;;8266713;28;20195;-69
2022/12/20 18:42:54;;;;;;;45.43;24.40;;;3.90;99.90;;;;;;8269753;28;20257;-70
2022/12/20 18:46:55;;;;;;;42.47;25.70;;;3.90;99.90;;;;;;8258953;28;20179;-69
2022/12/20 18:50:55;;;;;;;50.60;27.43;;;3.90;99.90;;;;;;8276965;28;20211;-70
2022/12/20 18:54:57;;;;;;;41.63;23.40;;;3.90;99.90;;;;;;8273209;28;20191;-69
2022/12/20 18:58:59;;;;;;;38.60;22.33;;;3.80;99.90;;;;;;8270449;28;20280;-70
2022/12/20 19:03:01;;;;;;;41.60;23.20;;;3.80;99.90;;;;;;8253931;28;20295;-70
2022/12/20 19:07:01;;;;;;;41.23;23.00;;;3.70;99.90;;;;;;8266568;28;20183;-70
2022/12/20 19:11:11;;;;;;;41.00;22.07;;;3.70;99.90;;;;;;8253620;28;20188;-70
2022/12/20 19:15:12;;;;;;;39.60;22.73;;;3.60;99.90;;;;;;8266116;28;20183;-69
2022/12/20 19:19:13;;;;;;;41.83;23.90;;;3.60;99.90;;;;;;8264894;28;20577;-70
2022/12/20 19:23:14;;;;;;;37.67;22.77;;;3.60;99.90;;;;;;8269467;28;20309;-69
2022/12/20 19:27:15;;;;;;;43.60;23.03;;;3.60;99.90;;;;;;8266819;28;20183;-70
2022/12/20 19:31:30;;;;;;;36.27;22.23;;;3.50;99.90;;;;;;8252344;28;20206;-69
2022/12/20 19:35:31;;;;;;;36.47;22.03;;;3.40;99.90;;;;;;8266667;28;20304;-70
2022/12/20 19:39:32;;;;;;;33.77;20.13;;;3.30;99.90;;;;;;8268166;28;20222;-70
2022/12/20 19:43:33;;;;;;;30.90;19.20;;;3.20;99.90;;;;;;8275612;28;20208;-69
2022/12/20 19:47:34;;;;;;;31.40;17.93;;;3.10;99.90;;;;;;8272189;28;20281;-69
2022/12/20 19:51:35;;;;;;;36.73;20.20;;;3.00;1.00;;;;;;8272714;28;20187;-70
2022/12/20 19:55:36;;;;;;;39.70;21.67;;;3.00;1.00;;;;;;8274223;28;20224;-69
2022/12/20 19:59:37;;;;;;;34.07;19.93;;;3.00;1.00;;;;;;8270272;28;20183;-69
2022/12/20 20:03:38;;;;;;;33.47;20.27;;;3.00;1.00;;;;;;8267504;28;20210;-69
2022/12/20 20:07:39;;;;;;;41.23;22.97;;;3.00;1.00;;;;;;8272299;28;20198;-70
2022/12/20 20:11:40;;;;;;;38.40;22.00;;;3.00;1.00;;;;;;8272293;28;20186;-69
2022/12/20 20:15:47;;;;;;;37.17;20.00;;;3.00;1.00;;;;;;8256925;28;20283;-70
2022/12/20 20:19:50;;;;;;;36.27;20.60;;;3.10;1.00;;;;;;8266827;28;20219;-69
2022/12/20 20:23:53;;;;;;;31.93;19.43;;;3.00;1.00;;;;;;8267043;28;20223;-70
2022/12/20 20:27:54;;;;;;;32.90;19.20;;;3.00;1.00;;;;;;8279810;28;20172;-70
2022/12/20 20:31:55;;;;;;;35.53;19.83;;;3.00;1.00;;;;;;8275386;28;20286;-70
2022/12/20 20:35:58;;;;;;;33.60;19.67;;;3.00;1.00;;;;;;8279614;28;20304;-70
2022/12/20 20:39:59;;;;;;;35.37;19.40;;;3.00;1.00;;;;;;8278529;28;20201;-69
2022/12/20 20:44:00;;;;;;;43.10;21.03;;;3.00;1.00;;;;;;8274287;28;20298;-70
2022/12/20 20:48:01;;;;;;;66.20;37.93;;;2.90;1.00;;;;;;8277058;28;20338;-70
2022/12/20 20:52:02;;;;;;;60.93;34.73;;;2.90;1.00;;;;;;8277503;28;20191;-70
2022/12/20 20:56:04;;;;;;;49.10;28.90;;;2.90;1.00;;;;;;8275274;28;20277;-70
2022/12/20 21:00:06;;;;;;;48.77;26.50;;;3.00;1.00;;;;;;8276128;28;20193;-70
2022/12/20 21:04:07;;;;;;;47.90;26.83;;;3.00;1.00;;;;;;8273806;28;20250;-68
2022/12/20 21:08:09;;;;;;;147.43;53.53;;;3.00;1.00;;;;;;8277848;28;20241;-68
2022/12/20 21:12:09;;;;;;;151.70;63.67;;;3.00;1.00;;;;;;8266735;28;20198;-68